createdAt,value
2022-08-12T00:02:42.893Z,29.80
2022-08-12T00:05:28.984Z,29.80
2022-08-12T00:08:15.513Z,29.80
2022-08-12T00:11:00.362Z,29.80
2022-08-12T00:13:57.533Z,29.80
2022-08-12T00:16:45.859Z,29.80
2022-08-12T00:19:30.958Z,29.80
2022-08-12T00:22:17.258Z,29.80
2022-08-12T00:25:02.223Z,29.80
2022-08-12T00:27:48.315Z,29.90
2022-08-12T00:30:33.146Z,29.90
2022-08-12T00:33:18.063Z,29.90
2022-08-12T00:36:16.796Z,29.90
2022-08-12T00:39:17.001Z,29.80
2022-08-12T00:42:01.758Z,29.90
2022-08-12T00:44:27.973Z,29.80
2022-08-12T00:46:58.332Z,29.90
2022-08-12T00:49:25.663Z,29.90
2022-08-12T00:52:05.855Z,29.90
2022-08-12T00:54:48.224Z,29.90
2022-08-12T00:57:18.542Z,29.90
2022-08-12T00:59:54.307Z,29.80
2022-08-12T01:02:33.147Z,29.80
2022-08-12T01:05:19.156Z,29.80
2022-08-12T01:08:05.998Z,29.80
2022-08-12T01:10:54.446Z,29.80
2022-08-12T01:13:21.527Z,29.90
2022-08-12T01:15:54.592Z,29.80
2022-08-12T01:18:23.465Z,29.90
2022-08-12T01:20:53.296Z,29.90
2022-08-12T01:23:37.348Z,29.90
2022-08-12T01:26:06.138Z,29.90
2022-08-12T01:28:34.246Z,29.90
2022-08-12T01:31:05.262Z,29.90
2022-08-12T01:33:43.457Z,29.90
2022-08-12T01:36:11.286Z,29.90
2022-08-12T01:38:40.582Z,29.90
2022-08-12T01:41:10.356Z,29.90
2022-08-12T01:43:37.807Z,29.90
2022-08-12T01:46:18.844Z,29.90
2022-08-12T01:49:02.798Z,29.90
2022-08-12T01:52:21.312Z,29.90
2022-08-12T01:54:48.734Z,29.90
2022-08-12T01:57:58.228Z,29.90
2022-08-12T02:00:18.621Z,29.90
2022-08-12T02:03:53.410Z,29.90
2022-08-12T02:06:47.806Z,29.90
2022-08-12T02:09:36.925Z,29.90
2022-08-12T02:12:21.677Z,29.90
2022-08-12T02:14:56.614Z,29.90
2022-08-12T02:17:59.868Z,29.90
2022-08-12T02:20:52.283Z,29.90
2022-08-12T02:23:22.668Z,29.90
2022-08-12T02:25:51.452Z,29.90
2022-08-12T02:28:18.074Z,29.90
2022-08-12T02:30:44.255Z,29.90
2022-08-12T02:33:11.419Z,29.90
2022-08-12T02:35:38.855Z,29.90
2022-08-12T02:38:08.339Z,29.90
2022-08-12T02:40:40.319Z,29.90
2022-08-12T02:43:29.360Z,29.90
2022-08-12T02:46:06.634Z,29.90
2022-08-12T02:48:52.868Z,29.90
2022-08-12T02:51:23.664Z,29.90
2022-08-12T02:54:03.245Z,29.90
2022-08-12T02:56:32.346Z,29.90
2022-08-12T02:58:59.772Z,29.90
2022-08-12T03:01:33.458Z,29.90
2022-08-12T03:04:01.941Z,29.90
2022-08-12T03:06:42.528Z,29.90
2022-08-12T03:09:14.241Z,29.90
2022-08-12T03:11:58.779Z,29.90
2022-08-12T03:14:28.914Z,29.90
2022-08-12T03:17:13.065Z,29.90
2022-08-12T03:20:08.827Z,29.90
2022-08-12T03:22:26.137Z,29.90
2022-08-12T03:24:54.423Z,29.90
2022-08-12T03:27:22.851Z,29.90
2022-08-12T03:29:51.534Z,29.90
2022-08-12T03:32:34.979Z,29.90
2022-08-12T03:35:06.595Z,29.90
2022-08-12T03:37:34.682Z,30.00
2022-08-12T03:40:00.909Z,29.90
2022-08-12T03:42:40.309Z,29.90
2022-08-12T03:45:34.849Z,29.90
2022-08-12T03:48:36.813Z,29.90
2022-08-12T03:51:22.082Z,29.90
2022-08-12T03:54:08.915Z,29.90
2022-08-12T03:56:55.910Z,30.00
2022-08-12T03:59:40.720Z,29.90
2022-08-12T04:02:07.494Z,30.00
2022-08-12T04:04:35.118Z,29.90
2022-08-12T04:07:03.399Z,29.90
2022-08-12T04:09:30.648Z,30.00
2022-08-12T04:12:15.565Z,30.00
2022-08-12T04:14:41.753Z,29.90
2022-08-12T04:17:08.321Z,29.90
2022-08-12T04:19:34.835Z,30.00
2022-08-12T04:22:03.281Z,30.00
2022-08-12T04:24:33.996Z,29.90
2022-08-12T04:27:00.168Z,29.90
2022-08-12T04:30:16.816Z,29.90
2022-08-12T04:32:12.995Z,29.90
2022-08-12T04:34:40.960Z,30.00
2022-08-12T04:37:07.090Z,29.90
2022-08-12T04:39:33.594Z,29.90
2022-08-12T04:42:00.346Z,29.80
2022-08-12T04:44:27.414Z,29.80
2022-08-12T04:46:54.029Z,29.80
2022-08-12T04:49:21.579Z,29.70
2022-08-12T04:51:53.510Z,29.70
2022-08-12T04:54:26.303Z,29.70
2022-08-12T04:57:03.985Z,29.70
2022-08-12T04:59:47.365Z,29.70
2022-08-12T05:02:22.927Z,29.60
2022-08-12T05:04:55.503Z,29.70
2022-08-12T05:07:23.486Z,29.60
2022-08-12T05:09:59.112Z,29.60
2022-08-12T05:12:35.609Z,29.70
2022-08-12T05:15:01.797Z,29.60
2022-08-12T05:17:28.447Z,29.60
2022-08-12T05:19:57.087Z,29.60
2022-08-12T05:22:23.963Z,29.60
2022-08-12T05:24:50.143Z,29.50
2022-08-12T05:27:17.507Z,29.60
2022-08-12T05:30:06.953Z,29.60
2022-08-12T05:32:35.897Z,29.50
2022-08-12T05:35:06.092Z,29.50
2022-08-12T05:37:34.070Z,29.50
2022-08-12T05:40:00.584Z,29.50
2022-08-12T05:42:34.387Z,29.50
2022-08-12T05:45:00.962Z,29.50
2022-08-12T05:47:36.736Z,29.50
2022-08-12T05:50:14.323Z,29.50
2022-08-12T05:52:40.723Z,29.50
2022-08-12T05:55:07.571Z,29.50
2022-08-12T05:57:35.990Z,29.50
2022-08-12T06:00:04.034Z,29.50
2022-08-12T06:02:30.411Z,29.50
2022-08-12T06:04:59.631Z,29.50
2022-08-12T06:07:59.810Z,29.40
2022-08-12T06:10:12.967Z,29.40
2022-08-12T06:12:39.191Z,29.40
2022-08-12T06:15:05.905Z,29.40
2022-08-12T06:17:32.143Z,29.40
2022-08-12T06:20:25.756Z,29.40
2022-08-12T06:22:46.938Z,29.40
2022-08-12T06:25:21.654Z,29.40
2022-08-12T06:28:07.661Z,29.40
2022-08-12T06:30:39.117Z,29.40
2022-08-12T06:33:25.008Z,29.40
2022-08-12T06:35:57.283Z,29.40
2022-08-12T06:38:25.059Z,29.30
2022-08-12T06:41:14.501Z,29.40
2022-08-12T06:44:05.775Z,29.30
2022-08-12T06:46:30.021Z,29.30
2022-08-12T06:48:58.271Z,29.30
2022-08-12T06:51:29.215Z,29.30
2022-08-12T06:53:56.014Z,29.30
2022-08-12T06:56:34.680Z,29.20
2022-08-12T06:59:06.388Z,29.30
2022-08-12T07:01:32.700Z,29.30
2022-08-12T07:04:14.349Z,29.30
2022-08-12T07:06:45.465Z,29.30
2022-08-12T07:09:15.886Z,29.30
2022-08-12T07:11:57.713Z,29.30
2022-08-12T07:14:24.562Z,29.30
2022-08-12T07:16:56.091Z,29.30
2022-08-12T07:19:22.496Z,29.30
2022-08-12T07:22:00.440Z,29.30
2022-08-12T07:24:29.794Z,29.30
2022-08-12T07:26:55.896Z,29.30
2022-08-12T07:29:22.339Z,29.30
2022-08-12T07:31:48.463Z,29.30
2022-08-12T07:34:14.714Z,29.30
2022-08-12T07:36:40.808Z,29.30
2022-08-12T07:39:06.981Z,29.30
2022-08-12T07:41:36.930Z,29.20
2022-08-12T07:44:06.705Z,29.30
2022-08-12T07:46:40.125Z,29.30
2022-08-12T07:49:11.617Z,29.30
2022-08-12T07:51:38.950Z,29.30
2022-08-12T07:54:09.773Z,29.30
2022-08-12T07:56:37.904Z,29.30
2022-08-12T07:59:05.457Z,29.30
2022-08-12T08:01:32.356Z,29.30
2022-08-12T08:04:19.401Z,29.30
2022-08-12T08:06:47.504Z,29.20
2022-08-12T08:09:15.263Z,29.30
2022-08-12T08:12:00.052Z,29.30
2022-08-12T08:14:28.622Z,29.30
2022-08-12T08:16:56.636Z,29.30
2022-08-12T08:19:23.391Z,29.30
2022-08-12T08:21:50.599Z,29.20
2022-08-12T08:24:17.585Z,29.30
2022-08-12T08:26:50.222Z,29.30
2022-08-12T08:29:18.315Z,29.30
2022-08-12T08:31:50.039Z,29.30
2022-08-12T08:34:33.818Z,29.30
2022-08-12T08:37:07.869Z,29.30
2022-08-12T08:39:37.781Z,29.30
2022-08-12T08:42:22.467Z,29.30
2022-08-12T08:44:49.624Z,29.20
2022-08-12T08:47:24.089Z,29.20
2022-08-12T08:49:50.295Z,29.20
2022-08-12T08:52:38.821Z,29.20
2022-08-12T08:55:04.329Z,29.30
2022-08-12T09:00:19.145Z,29.20
2022-08-12T09:02:58.778Z,29.30
2022-08-12T09:05:27.141Z,29.30
2022-08-12T09:08:08.998Z,29.30
2022-08-12T09:10:45.206Z,29.30
2022-08-12T09:16:13.487Z,29.30
2022-08-12T09:18:41.140Z,29.20
2022-08-12T09:21:09.554Z,29.20
2022-08-12T09:23:58.325Z,29.30
2022-08-12T09:26:22.647Z,29.30
2022-08-12T09:28:55.494Z,29.30
2022-08-12T09:32:06.296Z,29.20
2022-08-12T09:34:26.053Z,29.20
2022-08-12T09:37:01.186Z,29.30
2022-08-12T09:40:05.162Z,29.30
2022-08-12T09:42:44.018Z,29.30
2022-08-12T09:45:23.143Z,29.20
2022-08-12T09:47:59.736Z,29.20
2022-08-12T09:50:26.878Z,29.20
2022-08-12T09:53:04.917Z,29.30
2022-08-12T09:56:06.149Z,29.30
2022-08-12T09:58:57.818Z,29.20
2022-08-12T10:01:15.013Z,29.30
2022-08-12T10:04:03.630Z,29.30
2022-08-12T10:06:32.454Z,29.30
2022-08-12T10:09:06.051Z,29.20
2022-08-12T10:12:10.351Z,29.30
2022-08-12T10:14:37.222Z,29.30
2022-08-12T10:17:08.883Z,29.20
2022-08-12T10:19:37.153Z,29.20
2022-08-12T10:22:05.373Z,29.20
2022-08-12T10:24:31.615Z,29.30
2022-08-12T10:27:16.238Z,29.30
2022-08-12T10:30:02.816Z,29.30
2022-08-12T10:33:02.178Z,29.20
2022-08-12T10:35:16.143Z,29.20
2022-08-12T10:38:39.345Z,29.20
2022-08-12T10:40:33.230Z,29.20
2022-08-12T10:43:19.236Z,29.20
2022-08-12T10:45:48.489Z,29.20
2022-08-12T10:48:21.497Z,29.30
2022-08-12T10:51:01.648Z,29.20
2022-08-12T10:53:45.068Z,29.20
2022-08-12T10:56:17.619Z,29.20
2022-08-12T10:58:45.939Z,29.20
2022-08-12T11:01:50.181Z,29.20
2022-08-12T11:04:25.899Z,29.20
2022-08-12T11:07:08.744Z,29.20
2022-08-12T11:09:55.708Z,29.20
2022-08-12T11:12:56.258Z,29.20
2022-08-12T11:15:19.468Z,29.20
2022-08-12T11:17:53.535Z,29.20
2022-08-12T11:20:30.589Z,29.20
2022-08-12T11:22:59.502Z,29.20
2022-08-12T11:25:56.485Z,29.20
2022-08-12T11:28:13.801Z,29.20
2022-08-12T11:30:40.680Z,29.20
2022-08-12T11:33:11.647Z,29.30
2022-08-12T11:35:40.862Z,29.20
2022-08-12T11:38:12.257Z,29.30
2022-08-12T11:40:42.620Z,29.20
2022-08-12T11:43:18.687Z,29.20
2022-08-12T11:45:47.109Z,29.20
2022-08-12T11:48:15.190Z,29.30
2022-08-12T11:50:44.579Z,29.20
2022-08-12T11:53:57.861Z,29.20
2022-08-12T11:55:56.857Z,29.20
2022-08-12T11:59:44.351Z,29.30
2022-08-12T12:01:58.812Z,29.20
2022-08-12T12:03:55.955Z,29.20
2022-08-12T12:06:22.574Z,29.20
2022-08-12T12:08:52.831Z,29.20
2022-08-12T12:11:20.953Z,29.20
2022-08-12T12:14:06.893Z,29.30
2022-08-12T12:16:37.988Z,29.30
2022-08-12T12:19:08.094Z,29.20
2022-08-12T12:21:48.741Z,29.30
2022-08-12T12:24:21.805Z,29.30
2022-08-12T12:27:00.392Z,29.20
2022-08-12T12:30:18.700Z,29.20
2022-08-12T12:32:18.850Z,29.20
2022-08-12T12:35:18.458Z,29.20
2022-08-12T12:38:03.985Z,29.30
2022-08-12T12:40:18.894Z,29.30
2022-08-12T12:42:57.665Z,29.30
2022-08-12T12:45:33.191Z,29.30
2022-08-12T12:48:05.295Z,29.30
2022-08-12T12:50:45.644Z,29.30
2022-08-12T12:54:09.031Z,29.30
2022-08-12T12:56:12.462Z,29.30
2022-08-12T12:58:39.550Z,29.20
2022-08-12T13:01:26.599Z,29.30
2022-08-12T13:03:55.803Z,29.30
2022-08-12T13:06:24.886Z,29.30
2022-08-12T13:08:56.810Z,29.30
2022-08-12T13:11:41.796Z,29.30
2022-08-12T13:14:27.905Z,29.30
2022-08-12T13:16:56.471Z,29.30
2022-08-12T13:19:36.497Z,29.30
2022-08-12T13:22:17.979Z,29.20
2022-08-12T13:24:44.437Z,29.30
2022-08-12T13:27:10.555Z,29.30
2022-08-12T13:29:37.883Z,29.30
2022-08-12T13:32:19.108Z,29.20
2022-08-12T13:34:52.748Z,29.30
2022-08-12T13:37:44.151Z,29.30
2022-08-12T13:40:16.191Z,29.30
2022-08-12T13:42:48.094Z,29.30
2022-08-12T13:45:17.267Z,29.30
2022-08-12T13:47:56.876Z,29.30
2022-08-12T13:50:35.747Z,29.30
2022-08-12T13:53:23.821Z,29.30
2022-08-12T13:55:59.872Z,29.30
2022-08-12T13:58:30.114Z,29.30
2022-08-12T14:00:57.459Z,29.30
2022-08-12T14:03:27.981Z,29.30
2022-08-12T14:05:58.555Z,29.20
2022-08-12T14:08:27.830Z,29.30
2022-08-12T14:11:02.167Z,29.30
2022-08-12T14:14:03.906Z,29.30
2022-08-12T14:16:37.737Z,29.30
2022-08-12T14:19:04.459Z,29.30
2022-08-12T14:22:00.670Z,29.30
2022-08-12T14:24:27.005Z,29.30
2022-08-12T14:26:53.298Z,29.30
2022-08-12T14:29:37.835Z,29.30
2022-08-12T14:32:07.043Z,29.30
2022-08-12T14:34:43.070Z,29.30
2022-08-12T14:37:12.919Z,29.30
2022-08-12T14:39:56.465Z,29.30
2022-08-12T14:42:22.577Z,29.30
2022-08-12T14:44:58.106Z,29.30
2022-08-12T14:47:27.172Z,29.30
2022-08-12T14:50:58.629Z,29.30
2022-08-12T14:55:24.793Z,29.30
2022-08-12T14:58:21.165Z,29.30
2022-08-12T15:01:06.728Z,29.30
2022-08-12T15:03:52.528Z,29.30
2022-08-12T15:06:44.526Z,29.30
2022-08-12T15:09:11.902Z,29.30
2022-08-12T15:11:55.677Z,29.30
2022-08-12T15:14:26.640Z,29.30
2022-08-12T15:16:53.947Z,29.30
2022-08-12T15:20:28.414Z,29.30
2022-08-12T15:22:35.577Z,29.30
2022-08-12T15:24:53.091Z,29.30
2022-08-12T15:27:22.225Z,29.30
2022-08-12T15:29:57.624Z,29.30
2022-08-12T15:32:32.076Z,29.30
2022-08-12T15:35:02.226Z,29.30
2022-08-12T15:38:08.655Z,29.30
2022-08-12T15:40:14.786Z,29.30
2022-08-12T15:42:58.959Z,29.30
2022-08-12T15:45:32.109Z,29.30
2022-08-12T15:48:16.149Z,29.30
2022-08-12T15:50:45.827Z,29.30
2022-08-12T15:53:16.371Z,29.30
2022-08-12T15:55:46.310Z,29.30
2022-08-12T15:58:12.919Z,29.30
2022-08-12T16:00:42.717Z,29.30
2022-08-12T16:03:14.417Z,29.30
2022-08-12T16:06:12.714Z,29.30
2022-08-12T16:08:38.925Z,29.30
2022-08-12T16:11:15.531Z,29.30
2022-08-12T16:13:44.275Z,29.30
2022-08-12T16:16:22.959Z,29.30
2022-08-12T16:18:52.041Z,29.30
2022-08-12T16:21:50.674Z,29.30
2022-08-12T16:24:06.815Z,29.30
2022-08-12T16:26:35.099Z,29.30
2022-08-12T16:29:15.344Z,29.30
2022-08-12T16:31:43.581Z,29.30
2022-08-12T16:34:39.911Z,29.30
2022-08-12T16:37:01.420Z,29.30
2022-08-12T16:39:31.803Z,29.30
2022-08-12T16:42:01.856Z,29.30
2022-08-12T16:44:32.665Z,29.30
2022-08-12T16:47:01.061Z,29.30
2022-08-12T16:49:41.052Z,29.30
2022-08-12T16:52:12.992Z,29.40
2022-08-12T16:54:39.535Z,29.30
2022-08-12T16:57:08.957Z,29.30
2022-08-12T16:59:53.541Z,29.30
2022-08-12T17:02:33.543Z,29.30
2022-08-12T17:05:03.376Z,29.40
2022-08-12T17:07:36.167Z,29.40
2022-08-12T17:10:08.655Z,29.30
2022-08-12T17:12:37.467Z,29.40
2022-08-12T17:15:51.121Z,29.40
2022-08-12T17:18:42.091Z,29.40
2022-08-12T17:20:46.844Z,29.40
2022-08-12T17:23:17.966Z,29.30
2022-08-12T17:25:51.429Z,29.40
2022-08-12T17:28:19.279Z,29.30
2022-08-12T17:30:46.463Z,29.30
2022-08-12T17:33:26.918Z,29.40
2022-08-12T17:35:57.745Z,29.30
2022-08-12T17:38:24.085Z,29.40
2022-08-12T17:40:51.232Z,29.40
2022-08-12T17:43:54.967Z,29.30
2022-08-12T17:46:07.793Z,29.30
2022-08-12T17:48:55.152Z,29.40
2022-08-12T17:51:24.677Z,29.30
2022-08-12T17:54:10.293Z,29.40
2022-08-12T17:56:40.042Z,29.40
2022-08-12T17:59:07.491Z,29.40
2022-08-12T18:01:35.148Z,29.40
2022-08-12T18:04:21.864Z,29.40
2022-08-12T18:06:50.826Z,29.40
2022-08-12T18:09:17.547Z,29.40
2022-08-12T18:12:07.820Z,29.40
2022-08-12T18:14:37.026Z,29.40
2022-08-12T18:17:05.334Z,29.30
2022-08-12T18:20:05.224Z,29.40
2022-08-12T18:22:30.378Z,29.40
2022-08-12T18:25:05.115Z,29.40
2022-08-12T18:27:44.667Z,29.40
2022-08-12T18:30:21.026Z,29.40
2022-08-12T18:32:59.550Z,29.40
2022-08-12T18:35:46.460Z,29.40
2022-08-12T18:38:19.343Z,29.40
2022-08-12T18:41:06.698Z,29.50
2022-08-12T18:43:37.124Z,29.50
2022-08-12T18:46:47.640Z,29.60
2022-08-12T18:49:35.065Z,29.60
2022-08-12T18:52:05.737Z,29.60
2022-08-12T18:54:41.552Z,29.60
2022-08-12T18:57:19.848Z,29.60
2022-08-12T19:00:06.748Z,29.60
2022-08-12T19:02:36.257Z,29.60
2022-08-12T19:05:09.655Z,29.60
2022-08-12T19:07:58.088Z,29.60
2022-08-12T19:10:29.263Z,29.60
2022-08-12T19:13:20.938Z,29.70
2022-08-12T19:15:49.120Z,29.60
2022-08-12T19:18:16.280Z,29.70
2022-08-12T19:20:47.868Z,29.60
2022-08-12T19:23:16.636Z,29.70
2022-08-12T19:26:00.017Z,29.70
2022-08-12T19:28:30.271Z,29.70
2022-08-12T19:31:44.503Z,29.70
2022-08-12T19:34:47.181Z,29.70
2022-08-12T19:37:13.760Z,29.70
2022-08-12T19:40:08.930Z,29.70
2022-08-12T19:42:27.676Z,29.70
2022-08-12T19:44:58.953Z,29.70
2022-08-12T19:47:25.149Z,29.70
2022-08-12T19:49:55.606Z,29.70
2022-08-12T19:52:27.818Z,29.70
2022-08-12T19:54:56.170Z,29.70
2022-08-12T19:57:22.999Z,29.80
2022-08-12T20:00:03.446Z,29.70
2022-08-12T20:02:33.076Z,29.70
2022-08-12T20:06:02.935Z,29.70
2022-08-12T20:07:57.066Z,29.70
2022-08-12T20:10:35.320Z,29.80
2022-08-12T20:13:18.531Z,29.70
2022-08-12T20:15:50.457Z,29.80
2022-08-12T20:18:53.352Z,29.80
2022-08-12T20:21:14.995Z,29.80
2022-08-12T20:23:50.711Z,29.80
2022-08-12T20:26:27.366Z,29.80
2022-08-12T20:28:54.169Z,29.80
2022-08-12T20:31:20.280Z,29.80
2022-08-12T20:33:50.954Z,29.80
2022-08-12T20:36:40.950Z,29.80
2022-08-12T20:39:34.433Z,29.80
2022-08-12T20:42:03.842Z,29.80
2022-08-12T20:44:35.732Z,29.80
2022-08-12T20:47:18.140Z,29.80
2022-08-12T20:49:55.059Z,29.80
2022-08-12T20:52:24.665Z,29.80
2022-08-12T20:54:51.508Z,29.80
2022-08-12T20:57:21.456Z,29.90
2022-08-12T20:59:51.307Z,29.80
2022-08-12T21:02:19.509Z,29.80
2022-08-12T21:05:15.962Z,29.80
2022-08-12T21:07:51.435Z,29.90
2022-08-12T21:10:20.979Z,29.90
2022-08-12T21:12:47.894Z,29.90
2022-08-12T21:15:24.365Z,29.90
2022-08-12T21:18:11.552Z,29.90
2022-08-12T21:20:50.898Z,29.90
2022-08-12T21:23:20.262Z,29.80
2022-08-12T21:25:47.585Z,29.90
2022-08-12T21:28:18.276Z,29.90
2022-08-12T21:31:11.483Z,29.90
2022-08-12T21:33:45.580Z,29.90
2022-08-12T21:36:32.340Z,29.80
2022-08-12T21:39:20.654Z,29.90
2022-08-12T21:41:53.182Z,29.90
2022-08-12T21:45:44.075Z,29.90
2022-08-12T21:47:21.536Z,29.90
2022-08-12T21:49:55.725Z,29.90
2022-08-12T21:52:34.517Z,29.90
2022-08-12T21:55:02.730Z,29.90
2022-08-12T21:57:36.217Z,29.90
2022-08-12T22:00:16.940Z,29.90
2022-08-12T22:03:02.324Z,29.90
2022-08-12T22:05:47.063Z,29.90
2022-08-12T22:08:16.408Z,29.90
2022-08-12T22:10:50.519Z,29.90
2022-08-12T22:14:07.746Z,29.90
2022-08-12T22:16:05.250Z,29.90
2022-08-12T22:18:31.337Z,29.90
2022-08-12T22:20:58.235Z,29.90
2022-08-12T22:23:51.243Z,29.90
2022-08-12T22:26:12.989Z,29.90
2022-08-12T22:29:13.535Z,29.90
2022-08-12T22:31:43.411Z,29.90
2022-08-12T22:34:09.570Z,29.90
2022-08-12T22:36:44.467Z,29.90
2022-08-12T22:39:11.067Z,29.90
2022-08-12T22:42:00.747Z,29.90
2022-08-12T22:44:54.225Z,29.90
2022-08-12T22:47:53.608Z,29.90
2022-08-12T22:50:27.949Z,29.90
2022-08-12T22:53:13.749Z,29.90
2022-08-12T22:55:59.034Z,29.90
2022-08-12T22:58:28.542Z,30.00
2022-08-12T23:00:58.976Z,29.90
2022-08-12T23:03:48.283Z,30.00
2022-08-12T23:06:16.179Z,29.90
2022-08-12T23:08:42.857Z,29.90
2022-08-12T23:11:09.290Z,30.00
2022-08-12T23:13:45.863Z,30.00
2022-08-12T23:16:27.889Z,30.00
2022-08-12T23:18:59.698Z,29.90
2022-08-12T23:21:26.506Z,30.00
2022-08-12T23:24:13.719Z,29.90
2022-08-12T23:27:02.571Z,29.90
2022-08-12T23:29:29.720Z,30.00
2022-08-12T23:32:10.169Z,29.90
2022-08-12T23:34:36.788Z,29.90
2022-08-12T23:37:08.404Z,29.90
2022-08-12T23:40:13.644Z,30.00
2022-08-12T23:42:21.988Z,30.00
2022-08-12T23:45:00.375Z,30.00
2022-08-12T23:47:38.381Z,30.00
2022-08-12T23:50:06.983Z,30.00
2022-08-12T23:52:46.917Z,30.00
2022-08-12T23:55:24.621Z,30.00
2022-08-12T23:58:21.104Z,30.00
